Time;durP1;ratioP1;P1;durP2;ratioP2;P2;SDS_P1;SDS_P2;PMS_P1;PMS_P2;Temp;Humidity;BMP_temperature;BMP_pressure;BME280_temperature;BME280_humidity;BME280_pressure;Samples;Min_cycle;Max_cycle;Signal;HPM_P1;HPM_P2
2023/11/11 00:02:09;;;;;;;3.70;1.95;;;;;;;-144.05;82.01;57027.25;5004898;28;20500;-84
2023/11/11 00:04:36;;;;;;;3.60;1.50;;;;;;;-144.05;82.14;57040.00;5020740;28;20022;-82
2023/11/11 00:07:02;;;;;;;1.08;0.70;;;;;;;-144.05;82.24;56997.50;5020087;28;20033;-85
2023/11/11 00:09:29;;;;;;;1.45;0.70;;;;;;;-144.05;82.42;56974.16;5001315;28;20399;-86
2023/11/11 00:11:58;;;;;;;1.73;0.93;;;;;;;-144.05;81.91;56984.78;4996220;28;20022;-85
2023/11/11 00:14:25;;;;;;;2.63;0.68;;;;;;;-144.05;82.18;57018.75;5001222;28;20503;-83
2023/11/11 00:16:53;;;;;;;5.82;1.20;;;;;;;-144.05;82.39;57014.50;5000500;28;20499;-83
2023/11/11 00:19:19;;;;;;;1.20;0.93;;;;;;;-144.05;82.34;56984.78;5017232;28;20026;-85
2023/11/11 00:21:49;;;;;;;0.57;0.57;;;;;;;-144.05;82.47;57016.63;4999497;28;20033;-84
2023/11/11 00:24:15;;;;;;;8.68;6.88;;;;;;;-144.05;82.64;56989.00;4999965;28;20022;-84
2023/11/11 00:26:46;;;;;;;7.43;5.82;;;;;;;-144.05;82.45;57050.63;5017579;28;20030;-85
2023/11/11 00:29:12;;;;;;;6.93;5.50;;;;;;;-144.05;82.49;57006.00;5017289;28;20423;-83
2023/11/11 00:31:39;;;;;;;18.48;15.05;;;;;;;-144.05;82.07;57001.75;5012206;28;20023;-86
2023/11/11 00:34:06;;;;;;;14.70;11.45;;;;;;;-144.05;82.28;56991.13;5015917;28;20113;-83
2023/11/11 00:36:42;;;;;;;7.22;5.97;;;6.20;99.90;;;-144.05;82.58;57010.25;5015764;28;20396;-84
2023/11/11 00:39:11;;;;;;;3.45;1.33;;;;;;;-144.05;82.84;57001.75;5015741;28;20116;-83
2023/11/11 00:41:39;;;;;;;4.05;0.95;;;6.20;99.90;;;-144.05;83.18;57023.00;5014723;28;20026;-82
2023/11/11 00:44:10;;;;;;;2.03;0.70;;;6.20;99.90;;;-144.05;83.24;57031.50;4996893;28;20510;-82
2023/11/11 00:46:37;;;;;;;1.08;0.60;;;5.70;99.90;;;-144.05;83.01;56986.91;4996629;28;20372;-82
2023/11/11 00:49:08;;;;;;;1.17;1.00;;;;;;;-144.05;83.07;57001.75;4996331;28;20033;-82
2023/11/11 00:51:38;;;;;;;0.85;0.77;;;;;;;-144.05;82.83;57006.00;4995391;28;20024;-82
2023/11/11 00:54:05;;;;;;;2.83;0.80;;;;;;;-144.05;82.12;57023.00;5013632;28;20113;-82
2023/11/11 00:56:31;;;;;;;2.25;0.73;;;;;;;-144.05;81.86;57008.13;5013856;28;20105;-84
2023/11/11 00:58:58;;;;;;;2.17;0.80;;;;;;;-144.05;82.09;56976.28;5013638;28;20041;-85
2023/11/11 01:01:24;;;;;;;1.45;0.60;;;;;;;-144.05;82.10;57031.50;4996033;28;20026;-80
2023/11/11 01:03:51;;;;;;;1.27;0.47;;;;;;;-144.05;82.62;57010.25;5008667;28;20038;-82
2023/11/11 01:06:17;;;;;;;1.05;0.60;;;;;;;-144.05;82.52;56989.00;5013952;28;20109;-85
2023/11/11 01:08:45;;;;;;;0.70;0.55;;;;;;;-144.05;82.77;56993.25;4996528;28;20034;-82
2023/11/11 01:11:11;;;;;;;2.88;0.60;;;;;;;-144.05;82.79;56993.25;5010934;28;20518;-84
2023/11/11 01:13:37;;;;;;;1.88;0.40;;;;;;;-144.05;82.56;57006.00;5011654;28;20033;-84
2023/11/11 01:16:04;;;;;;;2.67;0.60;;;;;;;-144.05;82.31;57025.13;5013613;28;20525;-83
2023/11/11 01:18:31;;;;;;;2.35;0.60;;;;;;;-144.05;82.65;57018.75;4995678;28;20112;-82
2023/11/11 01:21:02;;;;;;;0.52;0.40;;;6.30;99.90;;;-144.05;83.06;56999.63;5012998;28;20104;-82
2023/11/11 01:23:33;;;;;;;1.23;0.50;;;;;;;-144.05;82.78;57023.00;4995570;28;20048;-83
2023/11/11 01:26:02;;;;;;;0.82;0.50;;;;;;;-144.05;82.92;57025.13;4995338;28;20124;-81
2023/11/11 01:28:31;;;;;;;1.02;0.47;;;;;;;-144.05;82.86;57016.63;5013026;28;20506;-82
2023/11/11 01:30:58;;;;;;;0.77;0.63;;;;;;;-144.05;82.75;57010.25;5012960;28;20538;-82
2023/11/11 01:33:24;;;;;;;1.45;0.70;;;;;;;-144.05;83.23;57008.13;5012801;28;20050;-82
2023/11/11 01:35:51;;;;;;;2.15;0.57;;;;;;;-144.05;82.71;57020.88;4995927;28;20118;-84
2023/11/11 01:38:20;;;;;;;0.93;0.70;;;6.10;99.90;;;-144.05;83.00;57016.63;5013721;28;20490;-83
2023/11/11 01:40:47;;;;;;;1.05;0.63;;;;;;;-144.05;83.17;57014.50;5013401;28;20040;-85
2023/11/11 01:43:15;;;;;;;0.82;0.68;;;6.10;99.90;;;-144.05;82.94;57008.13;5013598;28;20102;-83
2023/11/11 01:45:43;;;;;;;1.60;1.10;;;6.30;99.90;;;-144.05;82.94;57010.25;4995783;28;20115;-81
2023/11/11 01:48:17;;;;;;;2.10;1.30;;;6.10;99.90;;;-144.05;83.03;57031.50;5012962;28;20410;-83
2023/11/11 01:50:44;;;;;;;1.48;1.38;;;;;;;-144.05;83.14;57025.13;4995953;28;20403;-83
2023/11/11 01:53:15;;;;;;;3.28;1.50;;;;;;;-144.05;83.63;57003.88;5013244;28;20057;-83
2023/11/11 01:55:42;;;;;;;4.22;2.42;;;;;;;-144.05;83.48;57014.50;5013628;28;20101;-84
2023/11/11 01:58:09;;;;;;;6.13;3.03;;;;;;;-144.05;83.97;57010.25;5013507;28;20116;-83
2023/11/11 02:00:38;;;;;;;6.80;3.70;;;6.20;99.90;;;-144.05;84.18;57018.75;4995502;28;20033;-83
2023/11/11 02:03:06;;;;;;;6.55;3.58;;;;;;;-144.05;83.80;57006.00;4994664;28;20121;-82
2023/11/11 02:05:33;;;;;;;6.63;4.25;;;;;;;-144.05;84.24;57020.88;5011327;28;20112;-83
2023/11/11 02:08:06;;;;;;;8.80;4.68;;;;;;;-144.05;84.20;57029.38;5012390;28;20581;-82
2023/11/11 02:10:36;;;;;;;8.65;5.05;;;;;;;-144.05;84.29;57014.50;5012170;28;20072;-83
2023/11/11 02:13:03;;;;;;;11.70;6.32;;;6.10;99.90;;;-144.05;84.44;56978.41;4989941;28;20026;-83
2023/11/11 02:15:29;;;;;;;14.82;7.15;;;;;;;-144.05;84.04;57001.75;4994426;28;20022;-82
2023/11/11 02:18:03;;;;;;;13.75;8.30;;;;;;;-144.05;84.60;57044.25;4994526;28;20018;-82
2023/11/11 02:20:35;;;;;;;18.27;8.98;;;;;;;-144.05;84.54;56976.28;4994267;28;20042;-82
2023/11/11 02:23:02;;;;;;;21.58;10.73;;;;;;;-144.05;84.97;57006.00;5012067;28;20380;-84
2023/11/11 02:25:29;;;;;;;21.92;10.45;;;;;;;-144.05;85.05;57020.88;4994087;28;20510;-82
2023/11/11 02:27:56;;;;;;;23.25;11.07;;;;;;;-144.05;85.04;57031.50;5012340;28;20040;-84
2023/11/11 02:30:23;;;;;;;27.40;13.73;;;;;;;-144.05;85.07;57006.00;5011890;28;20105;-82
2023/11/11 02:32:49;;;;;;;27.08;14.02;;;;;;;-144.05;85.32;57012.38;5012007;28;20102;-82
2023/11/11 02:35:15;;;;;;;28.48;15.52;;;;;;;-144.05;85.72;57008.13;5011617;28;20436;-82
2023/11/11 02:37:42;;;;;;;30.67;15.77;;;;;;;-144.05;85.31;57003.88;5011919;28;20017;-82
2023/11/11 02:40:11;;;;;;;36.08;17.10;;;;;;;-144.05;85.34;56984.78;4993896;28;20080;-83
2023/11/11 02:42:40;;;;;;;34.22;18.02;;;;;;;-144.05;85.50;57014.50;5011560;28;20577;-82
2023/11/11 02:45:07;;;;;;;39.40;18.73;;;;;;;-144.05;85.85;57010.25;4993914;28;20037;-82
2023/11/11 02:47:33;;;;;;;36.40;17.63;;;;;;;-144.05;86.22;56982.66;5011607;28;20026;-82
2023/11/11 02:49:59;;;;;;;43.25;20.23;;;;;;;-144.05;86.55;57023.00;5011165;28;20068;-82
2023/11/11 02:52:26;;;;;;;42.25;20.67;;;;;;;-144.05;85.97;57014.50;4990899;28;20021;-83
2023/11/11 02:54:52;;;;;;;42.25;19.60;;;;;;;-144.05;85.75;57025.13;5008514;28;20018;-82
2023/11/11 02:57:18;;;;;;;50.80;25.23;;;;;;;-144.05;86.59;57014.50;4994061;28;20453;-82
2023/11/11 02:59:44;;;;;;;44.75;23.58;;;;;;;-144.05;86.89;57010.25;4993811;28;20026;-81
2023/11/11 03:02:13;;;;;;;52.47;23.83;;;;;;;-144.05;86.65;56997.50;5011268;28;20061;-81
2023/11/11 03:04:39;;;;;;;50.63;24.98;;;;;;;-144.05;86.55;57010.25;5011271;28;20022;-82
2023/11/11 03:07:06;;;;;;;49.22;24.88;;;;;;;-144.05;87.05;57035.75;4993454;28;20026;-82
2023/11/11 03:09:33;;;;;;;47.95;24.48;;;;;;;-144.05;86.42;57010.25;4993850;28;20022;-82
2023/11/11 03:12:00;;;;;;;47.55;23.33;;;;;;;-144.05;86.05;57014.50;4993285;28;20066;-83
2023/11/11 03:14:27;;;;;;;52.35;25.95;;;;;;;-144.05;85.82;56997.50;5010885;28;20026;-82
2023/11/11 03:16:53;;;;;;;50.58;24.73;;;;;;;-144.05;86.10;56982.66;5011368;28;20033;-80
2023/11/11 03:19:19;;;;;;;46.33;23.60;;;;;;;-144.05;86.10;56995.38;5011200;28;20026;-81
2023/11/11 03:21:46;;;;;;;45.65;22.45;;;;;;;-144.05;86.14;57044.25;4993143;28;20026;-81
2023/11/11 03:24:12;;;;;;;47.88;24.80;;;;;;;-144.05;86.29;57042.13;5011278;28;20088;-82
2023/11/11 03:26:38;;;;;;;49.47;23.98;;;;;;;-144.05;86.40;57006.00;4993441;28;20030;-81
2023/11/11 03:29:05;;;;;;;50.63;23.88;;;;;;;-144.05;86.50;56982.66;5011009;28;20030;-81
2023/11/11 03:31:31;;;;;;;45.70;23.65;;;;;;;-144.05;86.28;57033.63;4993081;28;20022;-81
2023/11/11 03:33:57;;;;;;;49.30;22.75;;;;;;;-144.05;86.01;57018.75;4993168;28;20033;-80
2023/11/11 03:36:23;;;;;;;43.83;22.75;;;;;;;-144.05;86.22;57006.00;5006929;28;20041;-81
2023/11/11 03:38:50;;;;;;;48.20;24.15;;;;;;;-144.05;86.68;57020.88;5010935;28;20076;-82
2023/11/11 03:41:16;;;;;;;43.90;23.25;;;;;;;-144.05;86.37;57016.63;5010917;28;20034;-82
2023/11/11 03:43:42;;;;;;;42.90;22.35;;;;;;;-144.05;86.17;56982.66;4993036;28;20026;-81
2023/11/11 03:46:09;;;;;;;39.35;21.50;;;;;;;-144.05;86.26;57014.50;5010683;28;20129;-82
2023/11/11 03:48:35;;;;;;;43.05;21.35;;;;;;;-144.05;86.32;57031.50;4993147;28;20022;-81
2023/11/11 03:51:01;;;;;;;43.75;22.38;;;;;;;-144.05;86.80;56991.13;4992910;28;20040;-81
2023/11/11 03:53:27;;;;;;;44.63;21.30;;;;;;;-144.05;86.33;56991.13;4992956;28;20064;-81
2023/11/11 03:55:54;;;;;;;39.47;19.92;;;;;;;-144.05;86.34;57048.50;4992882;28;20479;-81
2023/11/11 03:58:22;;;;;;;42.30;22.58;;;;;;;-144.05;86.25;57018.75;5010720;28;20076;-82
2023/11/11 04:00:48;;;;;;;48.22;22.30;;;;;;;-144.05;86.75;57027.25;5010424;28;20030;-82
2023/11/11 04:03:16;;;;;;;44.33;23.00;;;;;;;-144.05;87.08;57014.50;5006744;28;20058;-81
2023/11/11 04:05:42;;;;;;;46.75;21.05;;;;;;;-144.05;86.44;56982.66;5010319;28;20025;-81
2023/11/11 04:08:09;;;;;;;46.17;23.92;;;;;;;-144.05;87.23;57020.88;5006723;28;20029;-82
2023/11/11 04:10:35;;;;;;;43.42;23.52;;;;;;;-144.05;86.73;56984.78;4992814;28;20034;-81
2023/11/11 04:13:01;;;;;;;42.55;22.83;;;;;;;-144.05;86.57;56993.25;5006431;28;20535;-81
2023/11/11 04:15:28;;;;;;;43.22;20.95;;;;;;;-144.05;86.19;57014.50;5006911;28;20135;-83
2023/11/11 04:17:54;;;;;;;42.17;21.52;;;;;;;-144.05;86.95;57006.00;4992904;28;20045;-80
2023/11/11 04:20:20;;;;;;;43.00;21.60;;;;;;;-144.05;86.82;57006.00;5010816;28;20513;-84
2023/11/11 04:22:46;;;;;;;36.47;20.13;;;;;;;-144.05;86.37;57008.13;5011021;28;20042;-81
2023/11/11 04:25:13;;;;;;;38.75;18.98;;;;;;;-144.05;85.97;57012.38;5011571;28;20376;-82
2023/11/11 04:27:42;;;;;;;36.20;19.42;;;6.40;99.90;;;-144.05;87.18;56999.63;4996830;28;20030;-84
2023/11/11 04:30:10;;;;;;;27.92;16.73;;;;;;;-144.05;86.67;57023.00;4996623;28;20045;-82
2023/11/11 04:32:36;;;;;;;33.70;18.30;;;;;;;-144.05;86.67;57035.75;5014191;28;20025;-84
2023/11/11 04:35:03;;;;;;;34.13;18.15;;;;;;;-144.05;86.46;57042.13;4998952;28;20037;-82
2023/11/11 04:37:34;;;;;;;33.00;17.45;;;;;;;-144.05;86.10;57027.25;5021025;28;20029;-85
2023/11/11 04:40:00;;;;;;;31.38;17.55;;;;;;;-144.05;86.53;57018.75;5018701;28;20053;-84
2023/11/11 04:42:27;;;;;;;33.00;17.08;;;;;;;-144.05;85.85;57016.63;5013567;28;20036;-83
2023/11/11 04:44:53;;;;;;;29.45;16.10;;;;;;;-144.05;86.34;57031.50;5017623;28;20018;-84
2023/11/11 04:47:23;;;;;;;29.58;15.23;;;;;;;-144.05;85.75;57020.88;5017323;28;20037;-83
2023/11/11 04:49:49;;;;;;;26.25;13.77;;;;;;;-144.05;85.45;57008.13;4998736;28;20037;-81
2023/11/11 04:52:16;;;;;;;21.42;12.77;;;;;;;-144.05;85.39;56989.00;4999643;28;20112;-86
2023/11/11 04:54:43;;;;;;;27.15;13.85;;;;;;;-144.05;85.29;57003.88;5017436;28;20045;-85
2023/11/11 04:57:11;;;;;;;26.83;13.55;;;;;;;-144.05;85.09;57029.38;5016135;28;20404;-86
2023/11/11 04:59:38;;;;;;;23.45;13.75;;;;;;;-144.05;84.82;57016.63;5025313;28;20030;-81
2023/11/11 05:02:04;;;;;;;25.05;13.57;;;;;;;-144.05;85.11;57033.63;5037594;28;20032;-82
2023/11/11 05:04:31;;;;;;;30.05;15.63;;;;;;;-144.05;85.84;57023.00;5037533;28;20038;-83
2023/11/11 05:06:58;;;;;;;27.17;14.77;;;;;;;-144.05;85.76;57014.50;5020928;28;20022;-80
2023/11/11 05:09:24;;;;;;;27.85;15.38;;;;;;;-144.05;85.76;57010.25;5005751;28;20026;-84
2023/11/11 05:11:51;;;;;;;28.55;15.90;;;;;;;-144.05;85.91;57040.00;5013547;28;20029;-85
2023/11/11 05:14:18;;;;;;;27.45;16.00;;;;;;;-144.05;85.49;57023.00;5015736;28;20562;-84
2023/11/11 05:16:50;;;;;;;28.08;14.82;;;6.10;99.90;;;-144.05;85.76;57023.00;5019047;28;20036;-83
2023/11/11 05:19:20;;;;;;;30.73;15.70;;;6.20;99.90;;;-144.05;86.37;57042.13;4997273;28;20052;-85
2023/11/11 05:21:47;;;;;;;29.20;15.90;;;6.30;99.90;;;-144.05;85.74;57006.00;5013181;28;20129;-84
2023/11/11 05:24:14;;;;;;;34.03;18.50;;;6.30;99.90;;;-144.05;85.96;57027.25;4996717;28;20025;-83
2023/11/11 05:26:42;;;;;;;35.67;20.02;;;;;;;-144.05;86.50;56986.91;5014510;28;20030;-84
2023/11/11 05:29:09;;;;;;;41.63;19.85;;;;;;;-144.05;85.99;57001.75;5014683;28;20025;-82
2023/11/11 05:31:36;;;;;;;39.55;21.02;;;;;;;-144.05;85.97;57001.75;4996562;28;20067;-85
2023/11/11 05:34:03;;;;;;;35.38;18.75;;;;;;;-144.05;86.04;57040.00;4996956;28;20446;-82
2023/11/11 05:36:29;;;;;;;32.10;17.98;;;;;;;-144.05;85.85;57016.63;4989890;28;20022;-86
2023/11/11 05:38:56;;;;;;;31.42;17.80;;;;;;;-144.05;85.91;57014.50;4996438;28;20371;-84
2023/11/11 05:41:25;;;;;;;28.50;16.40;;;6.40;99.90;;;-144.05;86.07;57018.75;5013110;28;20495;-84
2023/11/11 05:43:51;;;;;;;31.58;16.83;;;;;;;-144.05;85.73;57018.75;5009958;28;20022;-83
2023/11/11 05:46:17;;;;;;;27.55;14.48;;;;;;;-144.05;85.87;56995.38;5013637;28;20036;-82
2023/11/11 05:48:44;;;;;;;24.92;13.00;;;;;;;-144.05;85.33;57001.75;4995477;28;20033;-81
2023/11/11 05:51:12;;;;;;;24.02;12.77;;;;;;;-144.05;85.15;56989.00;5013465;28;20109;-81
2023/11/11 05:53:39;;;;;;;24.80;12.55;;;;;;;-144.05;85.48;57031.50;5012694;28;20040;-82
2023/11/11 05:56:08;;;;;;;26.52;13.35;;;;;;;-144.05;85.42;57042.13;5013194;28;20348;-82
2023/11/11 05:58:35;;;;;;;26.13;13.05;;;;;;;-144.05;85.18;57010.25;5012580;28;20126;-82
2023/11/11 06:01:07;;;;;;;22.77;11.52;;;6.00;99.90;;;-144.05;85.12;57023.00;5012739;28;20444;-84
2023/11/11 06:03:33;;;;;;;22.85;12.15;;;;;;;-144.05;84.61;57006.00;5008900;28;20124;-81
2023/11/11 06:06:02;;;;;;;21.52;10.80;;;6.30;99.90;;;-144.05;84.74;56999.63;5012555;28;20033;-84
2023/11/11 06:08:29;;;;;;;21.45;9.77;;;;;;;-144.05;84.71;57008.13;4994598;28;20033;-83
2023/11/11 06:10:55;;;;;;;16.63;8.80;;;;;;;-144.05;84.78;57010.25;5012400;28;20026;-81
2023/11/11 06:13:21;;;;;;;17.73;9.20;;;;;;;-144.05;85.09;56993.25;5009863;28;20108;-82
2023/11/11 06:15:48;;;;;;;15.07;8.00;;;;;;;-144.05;84.37;57020.88;5014299;28;20073;-81
2023/11/11 06:18:14;;;;;;;15.65;8.25;;;;;;;-144.05;84.10;56997.50;5011142;28;20026;-81
2023/11/11 06:20:41;;;;;;;12.20;6.60;;;;;;;-144.05;84.13;57010.25;4995742;28;20068;-81
2023/11/11 06:23:07;;;;;;;13.05;6.55;;;;;;;-144.05;83.84;57018.75;5013366;28;20726;-82
2023/11/11 06:25:33;;;;;;;15.75;6.93;;;;;;;-144.05;84.07;57001.75;5013828;28;20054;-82
2023/11/11 06:27:59;;;;;;;15.23;7.85;;;;;;;-144.05;83.77;57020.88;5013655;28;20116;-82
2023/11/11 06:30:26;;;;;;;20.17;8.40;;;;;;;-144.05;84.17;57014.50;4992918;28;20053;-82
2023/11/11 06:32:52;;;;;;;13.38;8.85;;;;;;;-144.05;83.88;57018.75;5008030;28;20117;-82
2023/11/11 06:35:19;;;;;;;15.60;8.27;;;;;;;-144.05;84.86;57027.25;4995451;28;20400;-83
2023/11/11 06:37:45;;;;;;;13.65;7.03;;;;;;;-144.05;84.02;57018.75;5013162;28;20032;-82
2023/11/11 06:40:12;;;;;;;11.43;5.85;;;;;;;-144.05;84.11;57020.88;5013360;28;20061;-82
2023/11/11 06:42:38;;;;;;;11.38;6.40;;;;;;;-144.05;84.26;57014.50;4995679;28;20088;-80
2023/11/11 06:45:06;;;;;;;8.93;4.07;;;6.20;99.90;;;-144.05;83.27;57031.50;5013163;28;20040;-80
2023/11/11 06:47:33;;;;;;;10.07;4.22;;;;;;;-144.05;82.72;57027.25;5008410;28;20505;-82
2023/11/11 06:50:00;;;;;;;8.70;3.60;;;;;;;-144.05;83.06;57029.38;5012321;28;20084;-81
2023/11/11 06:52:26;;;;;;;8.98;2.72;;;;;;;-144.05;81.91;57033.63;5012867;28;20483;-81
2023/11/11 06:54:52;;;;;;;7.78;3.10;;;;;;;-144.05;81.64;57044.25;5007473;28;20482;-81
2023/11/11 06:57:20;;;;;;;7.22;2.88;;;5.70;99.90;;;-144.05;81.24;57010.25;5012860;28;20042;-81
2023/11/11 06:59:46;;;;;;;10.88;3.55;;;;;;;-144.05;81.23;56995.38;4994807;28;20169;-82
2023/11/11 07:02:12;;;;;;;7.20;3.70;;;;;;;-144.05;81.94;57031.50;4994940;28;20450;-83
2023/11/11 07:04:44;;;;;;;7.10;3.10;;;;;;;-144.05;81.97;57046.38;5012715;28;20057;-83
2023/11/11 07:07:11;;;;;;;7.03;3.17;;;;;;;-144.05;82.43;57042.13;5012443;28;20109;-81
2023/11/11 07:09:39;;;;;;;9.07;2.97;;;;;;;-144.05;81.48;57020.88;5012213;28;20068;-81
2023/11/11 07:12:06;;;;;;;9.80;2.97;;;6.10;99.90;;;-144.05;81.64;57040.00;5009811;28;20034;-82
2023/11/11 07:14:32;;;;;;;9.15;3.30;;;;;;;-144.05;82.12;57020.88;4994582;28;20141;-81
2023/11/11 07:16:59;;;;;;;7.80;3.00;;;;;;;-144.05;81.94;57025.13;5012569;28;20056;-81
2023/11/11 07:19:26;;;;;;;6.75;3.35;;;;;;;-144.05;81.93;57018.75;5012849;28;20038;-81
2023/11/11 07:21:52;;;;;;;7.43;3.40;;;;;;;-144.05;82.22;57025.13;4989416;28;20030;-82
2023/11/11 07:24:19;;;;;;;6.63;2.85;;;;;;;-144.05;82.27;57031.50;4995096;28;20040;-81
2023/11/11 07:26:45;;;;;;;6.70;2.20;;;;;;;-144.05;82.46;57023.00;5012149;28;20031;-84
2023/11/11 07:29:12;;;;;;;8.55;2.92;;;;;;;-144.05;81.91;57006.00;5011904;28;20029;-82
2023/11/11 07:31:38;;;;;;;5.70;3.38;;;;;;;-144.05;81.74;57040.00;5011670;28;20602;-83
2023/11/11 07:34:06;;;;;;;5.32;2.35;;;;;;;-144.05;82.32;57008.13;5012254;28;20057;-84
2023/11/11 07:36:33;;;;;;;5.55;2.95;;;;;;;-144.05;81.86;57020.88;5011990;28;20036;-82
2023/11/11 07:38:59;;;;;;;9.00;4.80;;;;;;;-144.05;82.54;57010.25;5012953;28;20049;-80
2023/11/11 07:41:25;;;;;;;8.32;4.22;;;;;;;-144.05;82.84;57029.38;5012161;28;20049;-80
2023/11/11 07:43:54;;;;;;;10.18;4.60;;;;;;;-144.05;83.09;56995.38;5012506;28;20546;-83
2023/11/11 07:46:20;;;;;;;10.50;4.32;;;;;;;-144.05;82.16;57020.88;4994790;28;20029;-81
2023/11/11 07:48:46;;;;;;;14.18;6.18;;;;;;;-144.05;82.75;57012.38;5012594;28;20030;-81
2023/11/11 07:51:14;;;;;;;13.20;6.55;;;;;;;-144.05;82.88;57010.25;5012688;28;20482;-83
2023/11/11 07:53:40;;;;;;;20.05;7.18;;;;;;;-144.05;83.23;57023.00;4994914;28;20469;-84
2023/11/11 07:56:07;;;;;;;14.02;7.32;;;;;;;-144.05;83.86;57008.13;4994938;28;20053;-82
2023/11/11 07:58:34;;;;;;;15.05;6.80;;;;;;;-144.05;84.02;57029.38;4994621;28;20499;-83
2023/11/11 08:01:03;;;;;;;13.70;8.65;;;;;;;-144.05;83.63;57006.00;5015067;28;20080;-81
2023/11/11 08:03:32;;;;;;;16.25;8.50;;;;;;;-144.05;83.96;57008.13;5016637;28;20634;-80
2023/11/11 08:05:59;;;;;;;18.50;9.18;;;;;;;-144.05;83.73;56982.66;5017825;28;20029;-82
2023/11/11 08:08:26;;;;;;;19.25;9.45;;;;;;;-144.05;83.97;57018.75;5000796;28;20034;-81
2023/11/11 08:10:54;;;;;;;19.02;9.68;;;;;;;-144.05;83.76;57031.50;5011769;28;20026;-81
2023/11/11 08:13:20;;;;;;;16.85;9.23;;;;;;;-144.05;83.70;57003.88;4995453;28;20034;-80
2023/11/11 08:15:47;;;;;;;16.73;10.38;;;;;;;-144.05;83.62;56997.50;5015569;28;20029;-81
2023/11/11 08:18:13;;;;;;;20.95;10.32;;;;;;;-144.05;84.20;57001.75;5015693;28;20053;-82
2023/11/11 08:20:41;;;;;;;18.90;10.23;;;;;;;-144.05;83.48;56986.91;4998297;28;20022;-82
2023/11/11 08:23:10;;;;;;;18.67;10.88;;;;;;;-144.05;83.25;56997.50;5016140;28;20041;-81
2023/11/11 08:25:37;;;;;;;19.50;10.32;;;6.90;99.90;;;-144.05;83.20;56989.00;4998418;28;20022;-80
2023/11/11 08:28:04;;;;;;;20.58;10.93;;;;;;;-144.05;83.39;57008.13;5016530;28;20029;-81
2023/11/11 08:30:30;;;;;;;23.27;12.10;;;;;;;-144.05;83.43;56999.63;5015817;28;20487;-80
2023/11/11 08:32:57;;;;;;;21.98;10.63;;;;;;;-144.05;82.93;56999.63;5016812;28;20483;-83
2023/11/11 08:35:23;;;;;;;22.05;12.07;;;;;;;-144.05;82.19;56982.66;4999035;28;20025;-82
2023/11/11 08:37:49;;;;;;;23.70;12.52;;;;;;;-144.05;81.31;57031.50;5013145;28;20483;-84
2023/11/11 08:40:17;;;;;;;21.20;14.45;;;;;;;-144.05;81.12;56995.38;5000490;28;20026;-83
2023/11/11 08:42:44;;;;;;;15.95;10.68;;;;;;;-144.05;81.64;56993.25;5023632;28;20033;-83
2023/11/11 08:45:11;;;;;;;21.27;12.70;;;;;;;-144.05;80.65;57027.25;5024119;28;20053;-80
2023/11/11 08:47:37;;;;;;;16.52;11.65;;;;;;;-144.05;80.92;57020.88;5015791;28;20036;-81
2023/11/11 08:50:06;;;;;;;18.83;11.60;;;;;;;-144.05;80.63;57025.13;4995920;28;20387;-81
2023/11/11 08:52:36;;;;;;;24.30;11.35;;;;;;;-144.05;80.51;57029.38;5013019;28;20033;-81
2023/11/11 08:55:03;;;;;;;17.77;11.48;;;;;;;-144.05;79.95;57003.88;5015161;28;20034;-79
2023/11/11 08:57:30;;;;;;;20.90;10.90;;;;;;;-144.05;79.98;57016.63;5016206;28;20034;-81
2023/11/11 08:59:56;;;;;;;19.25;11.35;;;;;;;-144.05;79.85;57027.25;5016035;28;20071;-83
2023/11/11 09:02:22;;;;;;;14.07;9.82;;;;;;;-144.05;79.82;56997.50;5015071;28;20033;-81
2023/11/11 09:04:48;;;;;;;18.15;11.10;;;;;;;-144.05;79.95;57018.75;5015121;28;20025;-79
2023/11/11 09:07:15;;;;;;;17.98;10.65;;;;;;;-144.05;79.51;57001.75;5015212;28;20061;-80
2023/11/11 09:09:42;;;;;;;18.33;10.90;;;;;;;-144.05;79.07;57016.63;4997726;28;20049;-81
2023/11/11 09:12:08;;;;;;;18.63;11.10;;;;;;;-144.05;79.24;56982.66;5014780;28;20069;-81
2023/11/11 09:14:35;;;;;;;19.17;10.82;;;;;;;-144.05;79.44;56989.00;5015376;28;20029;-84
2023/11/11 09:17:02;;;;;;;18.77;11.20;;;7.30;99.90;;;-144.05;78.83;56995.38;4998287;28;20549;-80
2023/11/11 09:19:29;;;;;;;16.48;10.45;;;;;;;-144.05;79.43;56982.66;4997943;28;20049;-81
2023/11/11 09:21:57;;;;;;;15.88;10.20;;;;;;;-144.05;79.32;57040.00;5015377;28;20280;-81
2023/11/11 09:24:24;;;;;;;16.90;10.25;;;7.30;99.90;;;-144.05;79.83;56982.66;5015270;28;20037;-83
2023/11/11 09:26:50;;;;;;;20.80;11.23;;;;;;;-144.05;80.10;57014.50;4998223;28;20025;-80
2023/11/11 09:29:18;;;;;;;23.33;10.68;;;;;;;-144.05;79.19;57006.00;5015470;28;20026;-78
2023/11/11 09:31:45;;;;;;;19.05;11.10;;;;;;;-144.05;78.51;56989.00;5015950;28;20026;-83
2023/11/11 09:34:12;;;;;;;20.85;10.82;;;;;;;-144.05;77.44;57001.75;5015254;28;20151;-80
2023/11/11 09:36:44;;;;;;;15.95;10.05;;;7.60;99.90;;;-144.05;77.46;57006.00;5013778;28;20108;-80
2023/11/11 09:39:13;;;;;;;26.45;10.65;;;;;;;-144.05;78.14;57027.25;5015947;28;20450;-81
2023/11/11 09:41:41;;;;;;;22.52;10.95;;;;;;;-144.05;77.86;56963.53;5012994;28;20030;-82
2023/11/11 09:44:08;;;;;;;17.52;10.52;;;;;;;-144.05;78.00;57018.75;5015037;28;20052;-82
2023/11/11 09:46:52;;;;;;;18.92;10.82;;;7.50;99.90;;;-144.05;78.68;56993.25;5015864;28;20247;-82
2023/11/11 09:49:19;;;;;;;17.90;9.90;;;7.40;99.90;;;-144.05;78.07;56989.00;4998196;28;20034;-80
2023/11/11 09:51:48;;;;;;;19.10;10.68;;;7.60;99.90;;;-144.05;77.79;56974.16;5015172;28;20045;-81
2023/11/11 09:54:16;;;;;;;17.52;11.15;;;7.50;99.90;;;-144.05;78.66;57014.50;5015241;28;20105;-81
2023/11/11 09:56:44;;;;;;;22.52;11.15;;;7.60;99.90;;;-144.05;78.67;57001.75;5014517;28;20151;-83
2023/11/11 09:59:12;;;;;;;17.42;10.38;;;7.60;99.90;;;-144.05;78.50;56980.53;5014986;28;20030;-81
2023/11/11 10:01:44;;;;;;;25.85;12.38;;;7.90;99.90;;;-144.05;77.90;56991.13;4997893;28;20022;-82
2023/11/11 10:04:10;;;;;;;22.13;14.10;;;;;;;-144.05;77.08;56995.38;5015755;28;20026;-81
2023/11/11 10:06:39;;;;;;;18.90;11.98;;;7.80;99.90;;;-144.05;77.41;56993.25;5014089;28;20026;-82
2023/11/11 10:09:11;;;;;;;13.43;9.43;;;7.80;99.90;;;-144.05;77.01;57006.00;5015309;28;20030;-82
2023/11/11 10:11:39;;;;;;;20.50;12.75;;;;;;;-144.05;76.76;56980.53;5013853;28;20025;-82
2023/11/11 10:14:08;;;;;;;17.58;10.88;;;;;;;-144.05;76.54;57010.25;4999004;28;20121;-82
2023/11/11 10:16:37;;;;;;;21.58;11.77;;;;;;;-144.05;77.04;56978.41;4998626;28;20471;-82
2023/11/11 10:19:03;;;;;;;19.35;10.60;;;;;;;-144.05;76.89;57006.00;5016594;28;20534;-82
2023/11/11 10:21:29;;;;;;;19.25;10.95;;;;;;;-144.05;77.10;57010.25;5016504;28;20033;-82
2023/11/11 10:23:56;;;;;;;23.52;11.45;;;;;;;-144.05;76.59;56995.38;5021580;28;20049;-79
2023/11/11 10:26:22;;;;;;;16.20;10.80;;;;;;;-144.05;76.55;57044.25;5035803;28;20058;-78
2023/11/11 10:28:50;;;;;;;17.13;10.43;;;;;;;-144.05;77.12;57003.88;5036351;28;20026;-79
2023/11/11 10:31:19;;;;;;;19.40;9.95;;;7.60;99.90;;;-144.05;77.31;57020.88;5017355;28;20057;-81
2023/11/11 10:33:46;;;;;;;25.63;12.93;;;;;;;-144.05;76.91;57001.75;5019982;28;20630;-81
2023/11/11 10:36:13;;;;;;;16.88;10.88;;;;;;;-144.05;76.90;57012.38;5014687;28;20033;-81
2023/11/11 10:38:42;;;;;;;22.70;10.18;;;;;;;-144.05;76.88;57027.25;4993464;28;20450;-81
2023/11/11 10:41:09;;;;;;;19.63;9.00;;;;;;;-144.05;76.35;57018.75;5009452;28;20038;-82
2023/11/11 10:43:36;;;;;;;16.35;10.65;;;;;;;-144.05;76.19;57020.88;5014451;28;20101;-80
2023/11/11 10:46:02;;;;;;;15.60;9.15;;;7.80;99.90;;;-144.05;76.72;56989.00;5014499;28;20141;-80
2023/11/11 10:48:32;;;;;;;16.65;10.60;;;7.80;99.90;;;-144.05;76.05;56997.50;5013527;28;20125;-81
2023/11/11 10:51:02;;;;;;;16.17;9.73;;;;;;;-144.05;76.79;57033.63;5014350;28;20434;-80
2023/11/11 10:53:31;;;;;;;15.97;9.97;;;7.80;99.90;;;-144.05;76.10;57014.50;4997068;28;20030;-82
2023/11/11 10:55:58;;;;;;;17.15;9.75;;;7.80;99.90;;;-144.05;77.52;57006.00;5014101;28;20025;-81
2023/11/11 10:58:28;;;;;;;17.02;9.30;;;7.80;99.90;;;-144.05;76.56;57016.63;5014530;28;20026;-81